createdAt,value
2018-06-18T00:00:45.414Z,16.49
2018-06-18T00:01:45.341Z,16.50
2018-06-18T00:02:45.252Z,16.38
2018-06-18T00:03:45.177Z,16.42
2018-06-18T00:04:45.101Z,16.38
2018-06-18T00:05:45.027Z,16.35
2018-06-18T00:06:44.938Z,16.35
2018-06-18T00:07:44.863Z,16.43
2018-06-18T00:08:44.788Z,16.30
2018-06-18T00:09:44.708Z,16.33
2018-06-18T00:10:44.627Z,16.23
2018-06-18T00:11:44.552Z,16.25
2018-06-18T00:12:44.463Z,16.23
2018-06-18T00:13:44.389Z,16.25
2018-06-18T00:14:44.313Z,16.15
2018-06-18T00:15:44.235Z,16.28
2018-06-18T00:16:44.152Z,16.12
2018-06-18T00:17:44.077Z,16.25
2018-06-18T00:18:43.994Z,16.12
2018-06-18T00:19:43.914Z,16.09
2018-06-18T00:20:43.839Z,16.11
2018-06-18T00:21:43.753Z,16.14
2018-06-18T00:22:43.677Z,16.12
2018-06-18T00:23:43.604Z,16.12
2018-06-18T00:24:43.515Z,16.15
2018-06-18T00:25:43.456Z,16.04
2018-06-18T00:26:43.365Z,16.02
2018-06-18T00:27:43.279Z,16.14
2018-06-18T00:28:43.207Z,16.02
2018-06-18T00:29:43.134Z,16.02
2018-06-18T00:30:43.041Z,16.08
2018-06-18T00:31:42.966Z,16.07
2018-06-18T00:32:42.904Z,16.01
2018-06-18T00:33:42.804Z,16.01
2018-06-18T00:34:42.731Z,16.02
2018-06-18T00:35:42.655Z,16.02
2018-06-18T00:36:42.566Z,16.00
2018-06-18T00:37:42.492Z,15.97
2018-06-18T00:38:42.417Z,15.97
2018-06-18T00:39:42.331Z,15.94
2018-06-18T00:40:42.255Z,15.94
2018-06-18T00:41:42.168Z,15.78
2018-06-18T00:42:42.094Z,15.89
2018-06-18T00:43:42.018Z,15.83
2018-06-18T00:44:41.930Z,15.69
2018-06-18T00:45:41.856Z,15.76
2018-06-18T00:46:41.780Z,15.72
2018-06-18T00:47:41.694Z,15.74
2018-06-18T00:48:41.618Z,15.74
2018-06-18T00:49:41.543Z,15.62
2018-06-18T00:50:41.456Z,15.71
2018-06-18T00:51:41.381Z,15.68
2018-06-18T00:52:41.307Z,15.60
2018-06-18T00:53:41.219Z,15.62
2018-06-18T00:54:41.143Z,15.64
2018-06-18T00:55:41.068Z,15.53
2018-06-18T00:56:40.982Z,15.59
2018-06-18T00:57:40.955Z,15.47
2018-06-18T00:58:40.832Z,15.46
2018-06-18T00:59:40.744Z,15.46
2018-06-18T01:00:40.669Z,15.43
2018-06-18T01:01:40.582Z,15.34
2018-06-18T01:02:40.508Z,15.39
2018-06-18T01:03:40.433Z,15.32
2018-06-18T01:04:40.344Z,15.35
2018-06-18T01:05:40.271Z,15.38
2018-06-18T01:06:40.194Z,15.34
2018-06-18T01:07:40.108Z,15.32
2018-06-18T01:08:40.034Z,15.34
2018-06-18T01:09:39.945Z,15.31
2018-06-18T01:10:39.870Z,15.34
2018-06-18T01:11:39.796Z,15.39
2018-06-18T01:12:39.710Z,15.32
2018-06-18T01:13:39.634Z,15.34
2018-06-18T01:14:39.547Z,15.36
2018-06-18T01:15:39.472Z,15.36
2018-06-18T01:16:39.396Z,15.39
2018-06-18T01:17:39.313Z,15.35
2018-06-18T01:18:39.234Z,15.34
2018-06-18T01:19:39.159Z,15.32
2018-06-18T01:20:39.071Z,15.34
2018-06-18T01:21:38.997Z,15.35
2018-06-18T01:22:38.934Z,15.32
2018-06-18T01:23:38.835Z,15.39
2018-06-18T01:24:38.760Z,15.36
2018-06-18T01:25:38.671Z,15.36
2018-06-18T01:26:38.597Z,15.31
2018-06-18T01:27:38.537Z,15.34
2018-06-18T01:28:38.435Z,15.28
2018-06-18T01:29:38.360Z,15.29
2018-06-18T01:30:38.274Z,15.31
2018-06-18T01:31:38.197Z,15.29
2018-06-18T01:32:38.127Z,15.23
2018-06-18T01:33:38.036Z,15.31
2018-06-18T01:34:37.961Z,15.20
2018-06-18T01:35:37.886Z,15.25
2018-06-18T01:36:37.798Z,15.21
2018-06-18T01:37:37.723Z,15.25
2018-06-18T01:38:37.636Z,15.25
2018-06-18T01:39:37.561Z,15.11
2018-06-18T01:40:37.487Z,15.23
2018-06-18T01:41:37.398Z,15.23
2018-06-18T01:42:37.323Z,15.25
2018-06-18T01:43:37.249Z,15.21
2018-06-18T01:44:37.161Z,15.19
2018-06-18T01:45:37.086Z,15.25
2018-06-18T01:46:37.004Z,15.19
2018-06-18T01:47:36.924Z,15.21
2018-06-18T01:48:36.849Z,15.13
2018-06-18T01:49:36.784Z,15.17
2018-06-18T01:50:36.687Z,15.10
2018-06-18T01:51:36.612Z,15.03
2018-06-18T01:52:36.524Z,15.02
2018-06-18T01:53:36.449Z,14.95
2018-06-18T01:54:36.363Z,15.06
2018-06-18T01:55:36.289Z,15.09
2018-06-18T01:56:36.213Z,15.03
2018-06-18T01:57:36.125Z,15.02
2018-06-18T01:58:36.051Z,14.99
2018-06-18T01:59:35.964Z,14.98
2018-06-18T02:00:35.890Z,15.10
2018-06-18T02:01:35.814Z,14.96
2018-06-18T02:02:35.726Z,15.02
2018-06-18T02:03:35.654Z,14.98
2018-06-18T02:04:35.576Z,15.06
2018-06-18T02:05:35.490Z,15.01
2018-06-18T02:06:35.415Z,15.06
2018-06-18T02:07:35.327Z,15.03
2018-06-18T02:08:35.252Z,15.01
2018-06-18T02:09:35.177Z,15.03
2018-06-18T02:10:35.090Z,15.06
2018-06-18T02:11:35.015Z,15.01
2018-06-18T02:12:34.928Z,14.98
2018-06-18T02:13:34.852Z,15.03
2018-06-18T02:14:34.777Z,15.02
2018-06-18T02:15:34.691Z,15.03
2018-06-18T02:16:34.616Z,14.99
2018-06-18T02:17:34.561Z,14.91
2018-06-18T02:18:34.453Z,14.91
2018-06-18T02:19:34.378Z,14.83
2018-06-18T02:20:34.291Z,14.86
2018-06-18T02:21:34.216Z,14.92
2018-06-18T02:22:34.145Z,14.80
2018-06-18T02:23:34.053Z,14.86
2018-06-18T02:24:33.978Z,14.86
2018-06-18T02:25:33.891Z,14.81
2018-06-18T02:26:33.817Z,14.86
2018-06-18T02:27:33.745Z,14.73
2018-06-18T02:28:33.653Z,14.80
2018-06-18T02:29:33.579Z,14.77
2018-06-18T02:30:33.493Z,14.69
2018-06-18T02:31:33.417Z,14.65
2018-06-18T02:32:33.345Z,14.65
2018-06-18T02:33:33.255Z,14.72
2018-06-18T02:34:33.180Z,14.77
2018-06-18T02:35:33.104Z,14.83
2018-06-18T02:36:33.019Z,14.75
2018-06-18T02:37:32.945Z,14.80
2018-06-18T02:38:32.855Z,14.77
2018-06-18T02:39:32.780Z,14.73
2018-06-18T02:40:32.693Z,14.75
2018-06-18T02:41:32.624Z,14.78
2018-06-18T02:42:32.544Z,14.68
2018-06-18T02:43:32.455Z,14.65
2018-06-18T02:44:32.382Z,14.70
2018-06-18T02:45:32.295Z,14.62
2018-06-18T02:46:32.219Z,14.70
2018-06-18T02:47:32.145Z,14.75
2018-06-18T02:48:32.059Z,14.77
2018-06-18T02:49:31.981Z,14.72
2018-06-18T02:50:31.894Z,14.83
2018-06-18T02:51:31.820Z,14.81
2018-06-18T02:52:31.744Z,14.81
2018-06-18T02:53:31.656Z,14.81
2018-06-18T02:54:31.582Z,14.80
2018-06-18T02:55:31.495Z,14.92
2018-06-18T02:56:31.426Z,14.86
2018-06-18T02:57:31.346Z,14.86
2018-06-18T02:58:31.269Z,14.94
2018-06-18T02:59:31.196Z,14.91
2018-06-18T03:00:31.096Z,14.88
2018-06-18T03:01:31.024Z,14.89
2018-06-18T03:02:30.950Z,14.86
2018-06-18T03:03:30.860Z,14.88
2018-06-18T03:04:30.792Z,15.01
2018-06-18T03:05:30.696Z,15.03
2018-06-18T03:06:30.621Z,14.95
2018-06-18T03:07:30.547Z,15.06
2018-06-18T03:08:30.459Z,15.11
2018-06-18T03:09:30.383Z,15.23
2018-06-18T03:10:30.297Z,15.20
2018-06-18T03:11:30.221Z,15.16
2018-06-18T03:12:30.135Z,15.21
2018-06-18T03:13:30.059Z,15.28
2018-06-18T03:14:29.984Z,15.36
2018-06-18T03:15:29.904Z,15.41
2018-06-18T03:16:29.823Z,15.43
2018-06-18T03:17:29.748Z,15.44
2018-06-18T03:18:29.659Z,15.46
2018-06-18T03:19:29.584Z,15.49
2018-06-18T03:20:29.501Z,15.50
2018-06-18T03:21:29.422Z,15.54
2018-06-18T03:22:29.348Z,15.62
2018-06-18T03:23:29.260Z,15.60
2018-06-18T03:24:29.185Z,15.62
2018-06-18T03:25:29.098Z,15.72
2018-06-18T03:26:29.024Z,15.68
2018-06-18T03:27:28.949Z,15.72
2018-06-18T03:28:28.862Z,15.64
2018-06-18T03:29:28.785Z,15.68
2018-06-18T03:30:28.723Z,15.65
2018-06-18T03:31:28.624Z,15.69
2018-06-18T03:32:28.549Z,15.60
2018-06-18T03:33:28.461Z,15.65
2018-06-18T03:34:28.385Z,15.65
2018-06-18T03:35:28.323Z,15.65
2018-06-18T03:36:28.224Z,15.60
2018-06-18T03:37:28.150Z,15.64
2018-06-18T03:38:28.063Z,15.71
2018-06-18T03:39:27.986Z,15.65
2018-06-18T03:40:27.924Z,15.68
2018-06-18T03:41:27.825Z,15.64
2018-06-18T03:42:27.749Z,15.68
2018-06-18T03:43:27.676Z,15.69
2018-06-18T03:44:27.587Z,15.60
2018-06-18T03:45:27.524Z,15.62
2018-06-18T03:46:27.425Z,15.49
2018-06-18T03:47:27.350Z,15.51
2018-06-18T03:48:27.276Z,15.46
2018-06-18T03:49:27.186Z,15.44
2018-06-18T03:50:27.113Z,15.36
2018-06-18T03:51:27.037Z,15.54
2018-06-18T03:52:26.951Z,15.41
2018-06-18T03:53:26.876Z,15.41
2018-06-18T03:54:26.788Z,15.41
2018-06-18T03:55:26.714Z,15.46
2018-06-18T03:56:26.639Z,15.44
2018-06-18T03:57:26.551Z,15.44
2018-06-18T03:58:26.476Z,15.39
2018-06-18T03:59:26.390Z,15.41
2018-06-18T04:00:26.314Z,15.44
2018-06-18T04:01:26.238Z,15.51
2018-06-18T04:02:26.152Z,15.51
2018-06-18T04:03:26.081Z,15.47
2018-06-18T04:04:26.002Z,15.56
2018-06-18T04:05:25.937Z,15.54
2018-06-18T04:06:25.839Z,15.67
2018-06-18T04:07:25.764Z,15.71
2018-06-18T04:08:25.681Z,15.86
2018-06-18T04:09:25.602Z,15.84
2018-06-18T04:10:25.516Z,15.84
2018-06-18T04:11:25.440Z,15.92
2018-06-18T04:12:25.365Z,16.00
2018-06-18T04:13:25.278Z,15.97
2018-06-18T04:14:25.204Z,16.04
2018-06-18T04:15:25.132Z,16.09
2018-06-18T04:16:25.040Z,16.08
2018-06-18T04:17:24.965Z,16.05
2018-06-18T04:18:24.893Z,16.20
2018-06-18T04:19:24.850Z,16.14
2018-06-18T04:20:24.729Z,16.17
2018-06-18T04:21:24.642Z,16.23
2018-06-18T04:22:24.567Z,16.38
2018-06-18T04:23:24.491Z,16.27
2018-06-18T04:24:24.404Z,16.46
2018-06-18T04:25:24.330Z,16.48
2018-06-18T04:26:24.255Z,16.49
2018-06-18T04:27:24.167Z,16.57
2018-06-18T04:28:24.106Z,16.66
2018-06-18T04:29:24.019Z,16.73
2018-06-18T04:30:23.933Z,16.81
2018-06-18T04:31:23.855Z,16.88
2018-06-18T04:32:23.780Z,17.12
2018-06-18T04:33:23.697Z,17.43
2018-06-18T04:34:23.618Z,17.62
2018-06-18T04:35:23.544Z,17.90
2018-06-18T04:36:23.456Z,18.02
2018-06-18T04:37:23.380Z,18.45
2018-06-18T04:38:23.306Z,18.92
2018-06-18T04:39:23.218Z,19.32
2018-06-18T04:40:23.143Z,19.58
2018-06-18T04:41:23.068Z,19.84
2018-06-18T04:42:22.993Z,20.08
2018-06-18T04:43:22.906Z,20.32
2018-06-18T04:44:22.832Z,20.28
2018-06-18T04:45:22.757Z,20.14
2018-06-18T04:46:22.670Z,19.86
2018-06-18T04:47:22.593Z,19.66
2018-06-18T04:48:22.520Z,19.68
2018-06-18T04:49:22.444Z,19.50
2018-06-18T04:50:22.369Z,19.50
2018-06-18T04:51:22.283Z,19.43
2018-06-18T04:52:22.207Z,19.40
2018-06-18T04:53:22.132Z,19.33
2018-06-18T04:54:22.057Z,19.44
2018-06-18T04:55:21.983Z,19.31
2018-06-18T04:56:21.909Z,19.26
2018-06-18T04:57:21.825Z,19.16
2018-06-18T04:58:21.744Z,19.11
2018-06-18T04:59:21.684Z,19.10
2018-06-18T05:00:21.596Z,19.10
2018-06-18T05:01:21.520Z,18.99
2018-06-18T05:02:21.445Z,18.99
2018-06-18T05:03:21.359Z,18.99
2018-06-18T05:04:21.284Z,18.88
2018-06-18T05:05:21.213Z,18.87
2018-06-18T05:06:21.134Z,18.88
2018-06-18T05:07:21.059Z,18.82
2018-06-18T05:08:20.984Z,18.91
2018-06-18T05:09:20.897Z,18.81
2018-06-18T05:10:20.821Z,18.84
2018-06-18T05:11:20.747Z,18.78
2018-06-18T05:12:20.672Z,18.84
2018-06-18T05:13:20.597Z,18.87
2018-06-18T05:14:20.522Z,18.84
2018-06-18T05:15:20.436Z,18.80
2018-06-18T05:16:20.371Z,18.78
2018-06-18T05:17:20.285Z,18.91
2018-06-18T05:18:20.210Z,18.85
2018-06-18T05:19:20.136Z,18.78
2018-06-18T05:20:20.090Z,18.75
2018-06-18T05:21:19.973Z,18.85
2018-06-18T05:22:19.911Z,18.73
2018-06-18T05:23:19.822Z,18.75
2018-06-18T05:24:19.750Z,18.66
2018-06-18T05:25:19.673Z,18.72
2018-06-18T05:26:19.655Z,18.78
2018-06-18T05:27:19.512Z,18.72
2018-06-18T05:28:19.437Z,18.63
2018-06-18T05:29:19.363Z,18.69
2018-06-18T05:30:19.287Z,18.66
2018-06-18T05:31:19.212Z,18.72
2018-06-18T05:32:19.126Z,18.66
2018-06-18T05:33:19.049Z,18.67
2018-06-18T05:34:18.974Z,18.62
2018-06-18T05:35:18.933Z,18.67
2018-06-18T05:36:18.824Z,18.69
2018-06-18T05:37:18.749Z,18.72
2018-06-18T05:38:18.663Z,18.57
2018-06-18T05:39:18.591Z,18.62
2018-06-18T05:40:18.513Z,18.57
2018-06-18T05:41:18.437Z,18.63
2018-06-18T05:42:18.363Z,18.57
2018-06-18T05:43:18.277Z,18.65
2018-06-18T05:44:18.213Z,18.63
2018-06-18T05:45:18.125Z,18.52
2018-06-18T05:46:18.050Z,18.52
2018-06-18T05:47:17.975Z,18.54
2018-06-18T05:48:17.894Z,18.50
2018-06-18T05:49:17.814Z,18.55
2018-06-18T05:50:17.814Z,18.60
2018-06-18T05:51:17.665Z,18.58
2018-06-18T05:52:17.589Z,18.51
2018-06-18T05:53:17.515Z,18.51
2018-06-18T05:54:17.426Z,18.41
2018-06-18T05:55:17.351Z,18.52
2018-06-18T05:56:17.276Z,18.48
2018-06-18T05:57:17.214Z,18.57
2018-06-18T05:58:17.126Z,18.63
2018-06-18T05:59:17.039Z,18.58
2018-06-18T06:00:16.965Z,18.60
2018-06-18T06:01:16.890Z,18.67
2018-06-18T06:02:16.815Z,18.65
2018-06-18T06:03:16.729Z,18.67
2018-06-18T06:04:16.655Z,18.69
2018-06-18T06:05:16.578Z,18.73
2018-06-18T06:06:16.516Z,18.63
2018-06-18T06:07:16.431Z,18.75
2018-06-18T06:08:16.340Z,18.81
2018-06-18T06:09:16.266Z,18.66
2018-06-18T06:10:16.191Z,18.69
2018-06-18T06:11:16.117Z,18.72
2018-06-18T06:12:16.044Z,18.75
2018-06-18T06:13:15.956Z,18.66
2018-06-18T06:14:15.879Z,18.82
2018-06-18T06:15:15.803Z,18.75
2018-06-18T06:16:15.729Z,18.78
2018-06-18T06:17:15.654Z,18.80
2018-06-18T06:18:15.579Z,18.84
2018-06-18T06:19:15.492Z,18.90
2018-06-18T06:20:15.417Z,18.90
2018-06-18T06:21:15.344Z,18.99
2018-06-18T06:22:15.273Z,19.11
2018-06-18T06:23:15.193Z,19.18
2018-06-18T06:24:15.104Z,19.13
2018-06-18T06:25:15.030Z,19.23
2018-06-18T06:26:14.954Z,19.31
2018-06-18T06:27:14.881Z,19.29
2018-06-18T06:28:14.805Z,19.28
2018-06-18T06:29:14.730Z,19.43
2018-06-18T06:30:14.644Z,19.41
2018-06-18T06:31:14.568Z,19.48
2018-06-18T06:32:14.502Z,19.43
2018-06-18T06:33:14.419Z,19.39
2018-06-18T06:34:14.386Z,19.48
2018-06-18T06:35:14.270Z,19.39
2018-06-18T06:36:14.181Z,19.40
2018-06-18T06:37:14.106Z,19.50
2018-06-18T06:38:14.031Z,19.47
2018-06-18T06:39:13.956Z,19.50
2018-06-18T06:40:13.881Z,19.63
2018-06-18T06:41:13.806Z,19.77
2018-06-18T06:42:13.720Z,19.71
2018-06-18T06:43:13.644Z,19.81
2018-06-18T06:44:13.569Z,19.81
2018-06-18T06:45:13.511Z,19.96
2018-06-18T06:46:13.420Z,19.86
2018-06-18T06:47:13.345Z,20.01
2018-06-18T06:48:13.270Z,19.95
2018-06-18T06:49:13.195Z,19.95
2018-06-18T06:50:13.109Z,19.86
2018-06-18T06:51:13.036Z,19.91
2018-06-18T06:52:12.957Z,19.77
2018-06-18T06:53:12.884Z,20.02
2018-06-18T06:54:12.808Z,20.03
2018-06-18T06:55:12.733Z,20.11
2018-06-18T06:56:12.658Z,20.08
2018-06-18T06:57:12.596Z,20.14
2018-06-18T06:58:12.508Z,20.38
2018-06-18T06:59:12.433Z,20.48
2018-06-18T07:00:12.358Z,20.50
2018-06-18T07:01:12.320Z,20.67
2018-06-18T07:02:12.205Z,20.82
2018-06-18T07:03:12.127Z,20.92
2018-06-18T07:04:12.048Z,20.92
2018-06-18T07:05:11.977Z,20.95
2018-06-18T07:06:11.896Z,20.97
2018-06-18T07:07:11.827Z,20.99
2018-06-18T07:08:11.748Z,21.10
2018-06-18T07:09:11.672Z,21.27
2018-06-18T07:10:11.598Z,21.37
2018-06-18T07:11:11.531Z,21.32
2018-06-18T07:12:11.447Z,21.64
2018-06-18T07:13:11.373Z,21.69
2018-06-18T07:14:11.298Z,22.05
2018-06-18T07:15:11.225Z,22.09
2018-06-18T07:16:11.149Z,22.02
2018-06-18T07:17:11.074Z,22.00
2018-06-18T07:18:10.998Z,22.05
2018-06-18T07:19:10.924Z,21.91
2018-06-18T07:20:10.849Z,21.99
2018-06-18T07:21:10.773Z,21.90
2018-06-18T07:22:10.698Z,21.96
2018-06-18T07:23:10.624Z,22.07
2018-06-18T07:24:10.549Z,22.02
2018-06-18T07:25:10.475Z,21.88
2018-06-18T07:26:10.448Z,21.92
2018-06-18T07:27:10.325Z,21.96
2018-06-18T07:28:10.249Z,21.92
2018-06-18T07:29:10.175Z,21.72
2018-06-18T07:30:10.188Z,21.52
2018-06-18T07:31:10.028Z,21.50
2018-06-18T07:32:09.953Z,21.50
2018-06-18T07:33:09.875Z,21.38
2018-06-18T07:34:09.799Z,21.37
2018-06-18T07:35:09.729Z,21.31
2018-06-18T07:36:09.650Z,21.27
2018-06-18T07:37:09.576Z,21.24
2018-06-18T07:38:09.501Z,21.19
2018-06-18T07:39:09.426Z,21.03
2018-06-18T07:40:09.352Z,20.98
2018-06-18T07:41:09.277Z,20.94
2018-06-18T07:42:09.208Z,20.95
2018-06-18T07:43:09.126Z,20.84
2018-06-18T07:44:09.052Z,20.84
2018-06-18T07:45:08.977Z,20.77
2018-06-18T07:46:08.904Z,20.74
2018-06-18T07:47:08.828Z,20.66
2018-06-18T07:48:08.753Z,20.61
2018-06-18T07:49:08.678Z,20.48
2018-06-18T07:50:08.603Z,20.59
2018-06-18T07:51:08.527Z,20.62
2018-06-18T07:52:08.452Z,20.69
2018-06-18T07:53:08.377Z,20.74
2018-06-18T07:54:08.303Z,20.79
2018-06-18T07:55:08.235Z,20.95
2018-06-18T07:56:08.153Z,20.98
2018-06-18T07:57:08.079Z,21.01
2018-06-18T07:58:08.006Z,21.01
2018-06-18T07:59:07.931Z,21.04
2018-06-18T08:00:07.853Z,20.94
2018-06-18T08:01:07.783Z,20.95
2018-06-18T08:02:07.707Z,21.03
2018-06-18T08:03:07.629Z,21.04
2018-06-18T08:04:07.556Z,21.14
2018-06-18T08:05:07.480Z,21.27
2018-06-18T08:06:07.405Z,21.35
2018-06-18T08:07:07.330Z,21.21
2018-06-18T08:08:07.243Z,21.34
2018-06-18T08:09:07.167Z,21.54
2018-06-18T08:10:07.113Z,21.52
2018-06-18T08:11:07.018Z,21.38
2018-06-18T08:12:06.943Z,21.47
2018-06-18T08:13:06.879Z,21.29
2018-06-18T08:14:06.806Z,21.38
2018-06-18T08:15:06.717Z,21.34
2018-06-18T08:16:06.642Z,21.56
2018-06-18T08:17:06.568Z,21.77
2018-06-18T08:18:06.508Z,21.75
2018-06-18T08:19:06.465Z,21.92
2018-06-18T08:20:06.342Z,22.06
2018-06-18T08:21:06.267Z,22.33
2018-06-18T08:22:06.205Z,22.45
2018-06-18T08:23:06.118Z,22.47
2018-06-18T08:24:06.043Z,22.51
2018-06-18T08:25:05.968Z,22.31
2018-06-18T08:26:05.906Z,22.17
2018-06-18T08:27:05.821Z,22.22
2018-06-18T08:28:05.745Z,22.07
2018-06-18T08:29:05.681Z,22.18
2018-06-18T08:30:05.607Z,22.18
2018-06-18T08:31:05.533Z,22.27
2018-06-18T08:32:05.457Z,22.36
2018-06-18T08:33:05.385Z,22.45
2018-06-18T08:34:05.307Z,22.67
2018-06-18T08:35:05.236Z,22.82
2018-06-18T08:36:05.159Z,22.91
2018-06-18T08:37:05.083Z,22.82
2018-06-18T08:38:05.008Z,23.02
2018-06-18T08:39:04.933Z,23.20
2018-06-18T08:40:04.862Z,23.31
2018-06-18T08:41:04.795Z,23.20
2018-06-18T08:42:04.720Z,23.33
2018-06-18T08:43:04.645Z,23.38
2018-06-18T08:44:04.570Z,23.28
2018-06-18T08:45:04.495Z,23.12
2018-06-18T08:46:04.420Z,23.05
2018-06-18T08:47:04.358Z,23.04
2018-06-18T08:48:04.285Z,23.05
2018-06-18T08:49:04.212Z,22.92
2018-06-18T08:50:04.134Z,22.95
2018-06-18T08:51:04.059Z,22.86
2018-06-18T08:52:03.984Z,22.88
2018-06-18T08:53:03.921Z,22.97
2018-06-18T08:54:03.850Z,22.90
2018-06-18T08:55:03.771Z,23.13
2018-06-18T08:56:03.705Z,23.25
2018-06-18T08:57:03.621Z,23.43
2018-06-18T08:58:03.560Z,23.40
2018-06-18T08:59:03.490Z,23.39
2018-06-18T09:00:03.410Z,23.20
2018-06-18T09:01:03.337Z,23.17
2018-06-18T09:02:03.260Z,23.16
2018-06-18T09:03:03.197Z,22.97
2018-06-18T09:04:03.122Z,23.02
2018-06-18T09:05:03.048Z,23.09
2018-06-18T09:06:02.986Z,22.98
2018-06-18T09:07:02.899Z,22.98
2018-06-18T09:08:02.836Z,23.10
2018-06-18T09:09:02.760Z,22.91
2018-06-18T09:10:02.745Z,23.00
2018-06-18T09:11:02.611Z,23.20
2018-06-18T09:12:02.548Z,23.28
2018-06-18T09:13:02.476Z,23.38
2018-06-18T09:14:02.400Z,23.48
2018-06-18T09:15:02.323Z,23.53
2018-06-18T09:16:02.306Z,23.51
2018-06-18T09:17:02.188Z,23.46
2018-06-18T09:18:02.117Z,23.57
2018-06-18T09:19:02.037Z,23.60
2018-06-18T09:20:01.974Z,23.76
2018-06-18T09:21:01.912Z,23.73
2018-06-18T09:22:01.824Z,23.36
2018-06-18T09:23:01.749Z,23.70
2018-06-18T09:24:01.687Z,23.85
2018-06-18T09:25:01.613Z,23.79
2018-06-18T09:26:01.542Z,23.97
2018-06-18T09:27:01.463Z,24.09
2018-06-18T09:28:01.402Z,24.06
2018-06-18T09:29:01.324Z,23.94
2018-06-18T09:30:01.262Z,24.09
2018-06-18T09:31:01.197Z,24.10
2018-06-18T09:32:01.139Z,24.16
2018-06-18T09:33:01.039Z,23.95
2018-06-18T09:34:00.976Z,23.87
2018-06-18T09:35:00.900Z,23.84
2018-06-18T09:36:00.825Z,23.87
2018-06-18T09:37:00.764Z,23.68
2018-06-18T09:38:00.691Z,23.79
2018-06-18T09:39:00.621Z,23.66
2018-06-18T09:40:00.554Z,23.95
2018-06-18T09:41:00.476Z,24.13
2018-06-18T09:42:00.403Z,24.42
2018-06-18T09:43:00.339Z,24.62
2018-06-18T09:44:00.265Z,24.46
2018-06-18T09:45:00.191Z,24.58
2018-06-18T09:46:00.127Z,24.69
2018-06-18T09:47:00.054Z,24.53
2018-06-18T09:48:00.034Z,24.71
2018-06-18T09:48:59.915Z,24.83
2018-06-18T09:49:59.842Z,25.06
2018-06-18T09:50:59.766Z,25.27
2018-06-18T09:51:59.703Z,25.79
2018-06-18T09:52:59.629Z,25.58
2018-06-18T09:53:59.565Z,25.17
2018-06-18T09:54:59.499Z,25.03
2018-06-18T09:55:59.419Z,24.80
2018-06-18T09:56:59.354Z,25.27
2018-06-18T09:57:59.277Z,24.67
2018-06-18T09:58:59.218Z,24.64
2018-06-18T09:59:59.141Z,24.42
2018-06-18T10:00:59.080Z,24.64
2018-06-18T10:01:59.004Z,24.61
2018-06-18T10:02:58.929Z,24.67
2018-06-18T10:03:58.867Z,24.77
2018-06-18T10:04:58.792Z,25.20
2018-06-18T10:05:58.728Z,25.27
2018-06-18T10:06:58.654Z,25.47
2018-06-18T10:07:58.593Z,25.61
2018-06-18T10:08:58.519Z,25.69
2018-06-18T10:09:58.454Z,25.38
2018-06-18T10:10:58.395Z,25.10
2018-06-18T10:11:58.306Z,25.18
2018-06-18T10:12:58.243Z,25.24
2018-06-18T10:13:58.168Z,25.51
2018-06-18T10:14:58.104Z,25.65
2018-06-18T10:15:58.030Z,25.60
2018-06-18T10:16:57.968Z,25.36
2018-06-18T10:17:57.893Z,25.06
2018-06-18T10:18:57.831Z,25.23
2018-06-18T10:19:57.758Z,25.28
2018-06-18T10:20:57.693Z,25.23
2018-06-18T10:21:57.618Z,24.77
2018-06-18T10:22:57.557Z,24.62
2018-06-18T10:23:57.483Z,24.98
2018-06-18T10:24:57.406Z,25.03
2018-06-18T10:25:57.345Z,25.25
2018-06-18T10:26:57.269Z,25.24
2018-06-18T10:27:57.206Z,25.13
2018-06-18T10:28:57.131Z,25.24
2018-06-18T10:29:57.056Z,25.03
2018-06-18T10:30:56.997Z,24.76
2018-06-18T10:31:56.920Z,24.77
2018-06-18T10:32:56.856Z,24.65
2018-06-18T10:33:56.782Z,24.37
2018-06-18T10:34:56.711Z,24.64
2018-06-18T10:35:56.645Z,25.00
2018-06-18T10:36:56.570Z,24.88
2018-06-18T10:37:56.495Z,24.93
2018-06-18T10:38:56.432Z,24.90
2018-06-18T10:39:56.360Z,25.21
2018-06-18T10:40:56.282Z,25.55
2018-06-18T10:41:56.221Z,25.73
2018-06-18T10:42:56.146Z,25.67
2018-06-18T10:43:56.071Z,25.92
2018-06-18T10:44:56.008Z,26.06
2018-06-18T10:45:55.939Z,26.44
2018-06-18T10:46:55.871Z,26.76
2018-06-18T10:47:55.799Z,27.37
2018-06-18T10:48:55.745Z,26.58
2018-06-18T10:49:55.664Z,27.22
2018-06-18T10:50:55.597Z,27.65
2018-06-18T10:51:55.533Z,26.48
2018-06-18T10:52:55.461Z,26.10
2018-06-18T10:53:55.383Z,26.12
2018-06-18T10:54:55.324Z,26.01
2018-06-18T10:55:55.247Z,25.46
2018-06-18T10:56:55.212Z,24.52
2018-06-18T10:57:55.124Z,24.03
2018-06-18T10:58:55.048Z,23.79
2018-06-18T10:59:54.984Z,24.00
2018-06-18T11:00:54.923Z,24.05
2018-06-18T11:01:54.854Z,23.79
2018-06-18T11:02:54.773Z,23.80
2018-06-18T11:03:54.713Z,23.94
2018-06-18T11:04:54.635Z,24.03
2018-06-18T11:05:54.573Z,24.16
2018-06-18T11:06:54.498Z,23.94
2018-06-18T11:07:54.424Z,23.94
2018-06-18T11:08:54.371Z,23.88
2018-06-18T11:09:54.288Z,23.80
2018-06-18T11:10:54.223Z,24.06
2018-06-18T11:11:54.148Z,24.35
2018-06-18T11:12:54.074Z,24.46
2018-06-18T11:13:54.011Z,24.57
2018-06-18T11:14:53.949Z,24.43
2018-06-18T11:15:53.892Z,24.52
2018-06-18T11:16:53.904Z,24.47
2018-06-18T11:17:53.725Z,24.37
2018-06-18T11:18:53.650Z,24.47
2018-06-18T11:19:53.575Z,24.24
2018-06-18T11:20:53.514Z,24.24
2018-06-18T11:21:53.480Z,24.05
2018-06-18T11:22:53.416Z,24.12
2018-06-18T11:23:53.300Z,23.91
2018-06-18T11:24:53.226Z,23.94
2018-06-18T11:25:53.151Z,24.05
2018-06-18T11:26:53.184Z,23.95
2018-06-18T11:27:53.014Z,23.87
2018-06-18T11:28:52.937Z,24.22
2018-06-18T11:29:52.862Z,24.47
2018-06-18T11:30:52.803Z,24.62
2018-06-18T11:31:52.737Z,25.06
2018-06-18T11:32:52.697Z,25.28
2018-06-18T11:33:52.576Z,26.10
2018-06-18T11:34:52.552Z,26.20
2018-06-18T11:35:52.438Z,26.05
2018-06-18T11:36:52.423Z,25.64
2018-06-18T11:37:52.303Z,25.67
2018-06-18T11:38:52.235Z,25.94
2018-06-18T11:39:52.157Z,26.23
2018-06-18T11:40:52.090Z,26.40
2018-06-18T11:41:52.045Z,25.80
2018-06-18T11:42:51.941Z,25.42
2018-06-18T11:43:51.879Z,25.21
2018-06-18T11:44:51.803Z,25.10
2018-06-18T11:45:51.755Z,25.23
2018-06-18T11:46:51.665Z,25.62
2018-06-18T11:47:51.607Z,26.88
2018-06-18T11:48:51.529Z,27.93
2018-06-18T11:49:51.454Z,28.44
2018-06-18T11:50:51.390Z,29.18
2018-06-18T11:51:51.316Z,29.76
2018-06-18T11:52:51.256Z,29.53
2018-06-18T11:53:51.178Z,29.80
2018-06-18T11:54:51.117Z,30.34
2018-06-18T11:55:51.101Z,30.51
2018-06-18T11:56:50.979Z,30.04
2018-06-18T11:57:50.916Z,29.73
2018-06-18T11:58:50.856Z,28.95
2018-06-18T11:59:50.779Z,28.89
2018-06-18T12:00:50.730Z,28.40
2018-06-18T12:01:50.708Z,28.17
2018-06-18T12:02:50.581Z,28.48
2018-06-18T12:03:50.572Z,27.96
2018-06-18T12:04:50.455Z,27.44
2018-06-18T12:05:50.392Z,27.07
2018-06-18T12:06:50.318Z,27.12
2018-06-18T12:07:50.255Z,26.87
2018-06-18T12:08:50.192Z,27.62
2018-06-18T12:09:50.158Z,26.89
2018-06-18T12:10:50.057Z,26.58
2018-06-18T12:11:50.011Z,27.96
2018-06-18T12:12:49.931Z,28.43
2018-06-18T12:13:49.869Z,29.43
2018-06-18T12:14:49.806Z,29.95
2018-06-18T12:15:49.732Z,29.63
2018-06-18T12:16:49.681Z,29.73
2018-06-18T12:17:49.595Z,29.94
2018-06-18T12:18:49.533Z,29.41
2018-06-18T12:19:49.469Z,28.56
2018-06-18T12:20:49.395Z,27.97
2018-06-18T12:21:49.333Z,26.72
2018-06-18T12:22:49.272Z,27.14
2018-06-18T12:23:49.207Z,26.99
2018-06-18T12:24:49.135Z,26.85
2018-06-18T12:25:49.070Z,26.65
2018-06-18T12:26:49.008Z,26.73
2018-06-18T12:27:48.933Z,26.65
2018-06-18T12:28:48.869Z,26.67
2018-06-18T12:29:48.807Z,26.23
2018-06-18T12:30:48.734Z,26.10
2018-06-18T12:31:48.670Z,25.91
2018-06-18T12:32:48.597Z,25.94
2018-06-18T12:33:48.534Z,25.92
2018-06-18T12:34:48.470Z,25.79
2018-06-18T12:35:48.396Z,25.67
2018-06-18T12:36:48.334Z,25.51
2018-06-18T12:37:48.260Z,25.45
2018-06-18T12:38:48.196Z,25.33
2018-06-18T12:39:48.121Z,25.21
2018-06-18T12:40:48.060Z,25.06
2018-06-18T12:41:47.986Z,24.91
2018-06-18T12:42:47.925Z,25.05
2018-06-18T12:43:47.847Z,24.95
2018-06-18T12:44:47.785Z,24.99
2018-06-18T12:45:47.710Z,24.88
2018-06-18T12:46:47.684Z,25.00
2018-06-18T12:47:47.610Z,25.09
2018-06-18T12:48:47.497Z,25.20
2018-06-18T12:49:47.436Z,25.23
2018-06-18T12:50:47.361Z,25.35
2018-06-18T12:51:47.285Z,25.27